Time;durP1;ratioP1;P1;durP2;ratioP2;P2;SDS_P1;SDS_P2;PMS_P1;PMS_P2;Temp;Humidity;BMP_temperature;BMP_pressure;BME280_temperature;BME280_humidity;BME280_pressure;Samples;Min_cycle;Max_cycle;Signal;HPM_P1;HPM_P2
2022/12/02 00:02:29;;;;;;;27.30;14.10;;;;;;;;;;5017131;28;20267;-40
2022/12/02 00:05:17;;;;;;;25.60;13.00;;;;;;;;;;5018634;28;20221;-40
2022/12/02 00:07:45;;;;;;;22.07;12.40;;;;;;;;;;5017965;28;20201;-40
2022/12/02 00:10:27;;;;;;;30.13;13.90;;;;;;;;;;5017932;28;20209;-40
2022/12/02 00:12:56;;;;;;;24.60;12.93;;;;;;;;;;5018176;28;20185;-40
2022/12/02 00:15:42;;;;;;;23.63;13.47;;;;;;;;;;5016767;28;20213;-40
2022/12/02 00:18:10;;;;;;;29.10;15.27;;;;;;;;;;5017844;28;20216;-41
2022/12/02 00:20:37;;;;;;;27.50;14.57;;;;;;;;;;5017693;28;20197;-40
2022/12/02 00:23:05;;;;;;;29.53;15.00;;;;;;;;;;5017853;28;20259;-42
2022/12/02 00:25:33;;;;;;;30.83;14.80;;;;;;;;;;5017861;28;20209;-40
2022/12/02 00:28:00;;;;;;;30.97;15.77;;;;;;;;;;5017824;28;20202;-41
2022/12/02 00:30:27;;;;;;;30.67;15.80;;;;;;;;;;5017538;28;20284;-41
2022/12/02 00:32:54;;;;;;;33.37;16.20;;;;;;;;;;5017778;28;20233;-41
2022/12/02 00:35:23;;;;;;;30.40;15.27;;;;;;;;;;5017549;28;20289;-41
2022/12/02 00:37:51;;;;;;;30.77;16.00;;;;;;;;;;5018375;28;20213;-42
2022/12/02 00:40:18;;;;;;;30.17;15.87;;;;;;;;;;5017301;28;20201;-41
2022/12/02 00:42:45;;;;;;;31.60;16.03;;;;;;;;;;5016925;28;20631;-41
2022/12/02 00:47:58;;;;;;;28.87;15.10;;;;;;;;;;5016576;28;20201;-41
2022/12/02 00:50:26;;;;;;;25.40;14.00;;;;;;;;;;5017303;28;20607;-40
2022/12/02 00:52:53;;;;;;;29.30;14.17;;;;;;;;;;5016826;28;20205;-40
2022/12/02 00:55:22;;;;;;;29.83;15.23;;;;;;;;;;5015604;28;20207;-41
2022/12/02 00:57:49;;;;;;;28.87;14.27;;;;;;;;;;5017309;28;20216;-41
2022/12/02 01:00:16;;;;;;;23.70;14.43;;;;;;;;;;5015829;28;20650;-42
2022/12/02 01:02:43;;;;;;;29.60;14.53;;;;;;;;;;5016691;28;20213;-40
2022/12/02 01:05:10;;;;;;;27.57;13.60;;;;;;;;;;5016567;28;20602;-40
2022/12/02 01:07:37;;;;;;;28.23;15.73;;;;;;;;;;5017178;28;20236;-40
2022/12/02 01:10:05;;;;;;;28.07;15.07;;;;;;;;;;5015784;28;20267;-40
2022/12/02 01:12:32;;;;;;;31.13;14.67;;;;;;;;;;5016755;28;20530;-42
2022/12/02 01:14:59;;;;;;;28.93;15.20;;;;;;;;;;5016666;28;20692;-41
2022/12/02 01:17:26;;;;;;;30.63;15.00;;;;;;;;;;5016561;28;20202;-41
2022/12/02 01:19:53;;;;;;;31.47;14.23;;;;;;;;;;5016931;28;20217;-41
2022/12/02 01:22:20;;;;;;;28.03;13.93;;;;;;;;;;5015757;28;20237;-41
2022/12/02 01:24:47;;;;;;;29.40;15.00;;;;;;;;;;5016406;28;20267;-40
2022/12/02 01:27:14;;;;;;;29.93;15.73;;;;;;;;;;5016526;28;20205;-40
2022/12/02 01:29:41;;;;;;;32.77;16.17;;;;;;;;;;5016351;28;20197;-40
2022/12/02 01:32:08;;;;;;;29.57;15.43;;;;;;;;;;5016451;28;20216;-41
2022/12/02 01:34:35;;;;;;;24.70;14.20;;;;;;;;;;5015181;28;20209;-40
2022/12/02 01:37:03;;;;;;;27.67;13.53;;;;;;;;;;5016152;28;20562;-41
2022/12/02 01:39:29;;;;;;;25.83;14.13;;;;;;;;;;5016258;28;20211;-40
2022/12/02 01:41:58;;;;;;;33.40;13.33;;;;;;;;;;5016052;28;20642;-41
2022/12/02 01:44:24;;;;;;;31.30;13.90;;;;;;;;;;5015192;28;20229;-41
2022/12/02 01:46:52;;;;;;;31.03;15.00;;;;;;;;;;5016098;28;20217;-41
2022/12/02 01:49:19;;;;;;;30.13;14.50;;;;;;;;;;5030977;28;20232;-41
2022/12/02 01:51:46;;;;;;;28.93;12.97;;;;;;;;;;5035563;28;20638;-41
2022/12/02 01:54:13;;;;;;;24.80;14.00;;;;;;;;;;5018927;28;20300;-41
2022/12/02 01:56:40;;;;;;;32.90;14.87;;;;;;;;;;5035639;28;20209;-41
2022/12/02 01:59:10;;;;;;;26.27;14.73;;;;;;;;;;5036128;28;20239;-41
2022/12/02 02:01:37;;;;;;;27.53;14.47;;;;;;;;;;5034793;28;20272;-41
2022/12/02 02:04:04;;;;;;;27.13;14.53;;;;;;;;;;5035350;28;20220;-41
2022/12/02 02:06:34;;;;;;;32.97;14.43;;;;;;;;;;5034714;28;20227;-41
2022/12/02 02:09:02;;;;;;;33.53;14.20;;;;;;;;;;5018150;28;20534;-40
2022/12/02 02:11:30;;;;;;;29.17;14.60;;;;;;;;;;5034582;28;20205;-41
2022/12/02 02:13:58;;;;;;;32.30;14.77;;;;;;;;;;5034634;28;20296;-41
2022/12/02 02:16:26;;;;;;;27.20;14.53;;;;;;;;;;5034489;28;20219;-40
2022/12/02 02:18:53;;;;;;;29.50;14.33;;;;;;;;;;5034237;28;20258;-40
2022/12/02 02:21:23;;;;;;;32.03;15.17;;;;;;;;;;5034378;28;20239;-40
2022/12/02 02:23:51;;;;;;;39.70;16.27;;;;;;;;;;5034419;28;20235;-40
2022/12/02 02:26:18;;;;;;;34.30;15.10;;;;;;;;;;5034393;28;20208;-41
2022/12/02 02:28:45;;;;;;;29.57;14.60;;;;;;;;;;5034478;28;20268;-41
2022/12/02 02:31:12;;;;;;;25.77;13.03;;;;;;;;;;5035178;28;20208;-41
2022/12/02 02:33:42;;;;;;;27.50;13.00;;;;;;;;;;5034499;28;20274;-41
2022/12/02 02:36:10;;;;;;;35.77;15.57;;;;;;;;;;5034097;28;20212;-40
2022/12/02 02:38:37;;;;;;;26.50;13.63;;;;;;;;;;5034018;28;20295;-40
2022/12/02 02:41:05;;;;;;;27.10;14.40;;;;;;;;;;5034348;28;20560;-41
2022/12/02 02:43:34;;;;;;;31.30;14.50;;;;;;;;;;5017815;28;20200;-41
2022/12/02 02:46:01;;;;;;;36.67;14.80;;;;;;;;;;5034473;28;20209;-41
2022/12/02 02:48:34;;;;;;;29.63;13.47;;;;;;;;;;5019055;28;20574;-40
2022/12/02 02:51:02;;;;;;;29.73;13.93;;;;;;;;;;5034685;28;20216;-41
2022/12/02 02:53:30;;;;;;;27.93;13.70;;;;;;;;;;5017919;28;20633;-40
2022/12/02 02:55:58;;;;;;;31.23;14.80;;;;;;;;;;5034034;28;20274;-41
2022/12/02 02:58:25;;;;;;;30.00;13.80;;;;;;;;;;5034896;28;20208;-41
2022/12/02 03:01:08;;;;;;;33.13;15.17;;;;;;;;;;5033896;28;20205;-40
2022/12/02 03:03:39;;;;;;;24.27;13.90;;;;;;;;;;5033949;28;20291;-40
2022/12/02 03:06:08;;;;;;;30.10;14.93;;;;;;;;;;5034052;28;20605;-41
2022/12/02 03:08:38;;;;;;;28.00;14.23;;;;;;;;;;5017938;28;20212;-40
2022/12/02 03:11:05;;;;;;;36.50;15.87;;;;;;;;;;5017567;28;20208;-41
2022/12/02 03:13:34;;;;;;;31.37;15.33;;;;;;;;;;5034839;28;20201;-41
2022/12/02 03:16:02;;;;;;;28.13;13.93;;;;;;;;;;5033763;28;20216;-41
2022/12/02 03:18:30;;;;;;;28.33;14.67;;;;;;;;;;5035769;28;20212;-41
2022/12/02 03:20:58;;;;;;;33.50;14.53;;;;;;;;;;5037274;28;20212;-43
2022/12/02 03:23:25;;;;;;;29.13;14.13;;;;;;;;;;5038221;28;20239;-40
2022/12/02 03:25:52;;;;;;;28.50;14.13;;;;;;;;;;5037513;28;20224;-39
2022/12/02 03:28:19;;;;;;;30.43;13.67;;;;;;;;;;5038520;28;20262;-40
2022/12/02 03:30:46;;;;;;;31.07;13.83;;;;;;;;;;5038425;28;20216;-41
2022/12/02 03:33:13;;;;;;;28.43;14.10;;;;;;;;;;5038116;28;20633;-41
2022/12/02 03:35:40;;;;;;;30.00;14.63;;;;;;;;;;5038387;28;20220;-40
2022/12/02 03:38:07;;;;;;;36.40;15.10;;;;;;;;;;5038672;28;20215;-41
2022/12/02 03:40:35;;;;;;;35.60;15.30;;;;;;;;;;5038087;28;20215;-41
2022/12/02 03:43:01;;;;;;;42.90;16.47;;;;;;;;;;5037519;28;20657;-40
2022/12/02 03:45:29;;;;;;;53.33;18.10;;;;;;;;;;5038149;28;20225;-40
2022/12/02 03:47:55;;;;;;;29.13;14.87;;;;;;;;;;5038347;28;20216;-41
2022/12/02 03:50:23;;;;;;;28.80;14.43;;;;;;;;;;5038240;28;20201;-41
2022/12/02 03:52:49;;;;;;;27.87;13.37;;;;;;;;;;5038053;28;20239;-41
2022/12/02 03:55:16;;;;;;;31.97;14.57;;;;;;;;;;5037997;28;20200;-41
2022/12/02 03:57:43;;;;;;;25.80;13.47;;;;;;;;;;5037870;28;20278;-41
2022/12/02 04:00:11;;;;;;;29.43;13.93;;;;;;;;;;5038428;28;20197;-41
2022/12/02 04:02:42;;;;;;;28.97;13.90;;;;;;;;;;5038109;28;20189;-41
2022/12/02 04:05:09;;;;;;;26.30;13.67;;;;;;;;;;5038112;28;20235;-40
2022/12/02 04:07:36;;;;;;;34.30;14.10;;;;;;;;;;5037871;28;20204;-41
2022/12/02 04:10:04;;;;;;;26.70;13.47;;;;;;;;;;5037365;28;20681;-40
2022/12/02 04:12:31;;;;;;;34.63;14.97;;;;;;;;;;5037600;28;20228;-41
2022/12/02 04:14:58;;;;;;;48.77;17.30;;;;;;;;;;5037633;28;20267;-40
2022/12/02 04:17:25;;;;;;;30.90;14.43;;;;;;;;;;5037599;28;20225;-41
2022/12/02 04:19:52;;;;;;;30.27;14.63;;;;;;;;;;5037705;28;20244;-41
2022/12/02 04:22:19;;;;;;;35.53;14.90;;;;;;;;;;5038135;28;20335;-41
2022/12/02 04:24:46;;;;;;;34.53;15.33;;;;;;;;;;5037263;28;20269;-41
2022/12/02 04:27:13;;;;;;;164.37;64.50;;;;;;;;;;5037451;28;20209;-41
2022/12/02 04:29:40;;;;;;;31.30;16.10;;;;;;;;;;5035882;28;20533;-43
2022/12/02 04:32:07;;;;;;;60.03;27.87;;;;;;;;;;5036650;28;20243;-42
2022/12/02 04:34:34;;;;;;;35.20;15.73;;;;;;;;;;5037277;28;20205;-41
2022/12/02 04:37:00;;;;;;;39.97;16.43;;;;;;;;;;5037083;28;20209;-40
2022/12/02 04:39:28;;;;;;;30.20;14.17;;;;;;;;;;5037097;28;20205;-41
2022/12/02 04:41:54;;;;;;;32.67;14.90;;;;;;;;;;5036867;28;20278;-42
2022/12/02 04:44:21;;;;;;;27.10;14.27;;;;;;;;;;5037543;28;20236;-41
2022/12/02 04:46:48;;;;;;;34.37;15.00;;;;;;;;;;5037158;28;20205;-41
2022/12/02 04:49:16;;;;;;;32.40;13.70;;;;;;;;;;5036848;28;20709;-43
2022/12/02 04:51:42;;;;;;;29.23;13.87;;;;;;;;;;5036891;28;20651;-40
2022/12/02 04:54:09;;;;;;;33.63;13.67;;;;;;;;;;5036141;28;20638;-43
2022/12/02 04:56:37;;;;;;;27.93;13.77;;;;;;;;;;5032455;28;20263;-42
2022/12/02 04:59:04;;;;;;;26.03;13.67;;;;;;;;;;5037031;28;20204;-43
2022/12/02 05:01:30;;;;;;;27.13;13.20;;;;;;;;;;5036736;28;20204;-42
2022/12/02 05:03:58;;;;;;;29.23;13.50;;;;;;;;;;5034739;28;20271;-41
2022/12/02 05:06:24;;;;;;;27.43;12.37;;;;;;;;;;5036484;28;20232;-42
2022/12/02 05:08:52;;;;;;;34.63;13.00;;;;;;;;;;5036730;28;20208;-42
2022/12/02 05:11:18;;;;;;;34.03;13.93;;;;;;;;;;5035242;28;20267;-41
2022/12/02 05:13:45;;;;;;;27.33;12.90;;;;;;;;;;5036453;28;20220;-40
2022/12/02 05:16:12;;;;;;;28.10;12.63;;;;;;;;;;5028813;28;20224;-41
2022/12/02 05:18:40;;;;;;;27.93;13.90;;;;;;;;;;5023100;28;20287;-48
2022/12/02 05:21:06;;;;;;;27.50;13.20;;;;;;;;;;5034934;28;20252;-40
2022/12/02 05:23:33;;;;;;;28.43;13.27;;;;;;;;;;5035470;28;20233;-40
2022/12/02 05:26:00;;;;;;;31.87;14.47;;;;;;;;;;5023239;28;20241;-40
2022/12/02 05:28:27;;;;;;;41.60;20.00;;;;;;;;;;5033274;28;20286;-41
2022/12/02 05:30:54;;;;;;;28.23;15.30;;;;;;;;;;5034775;28;20236;-40
2022/12/02 05:33:22;;;;;;;27.13;14.50;;;;;;;;;;5034663;28;20229;-41
2022/12/02 05:35:48;;;;;;;32.60;14.67;;;;;;;;;;5035470;28;20251;-40
2022/12/02 05:38:16;;;;;;;32.33;14.83;;;;;;;;;;5035524;28;20233;-40
2022/12/02 05:40:43;;;;;;;26.63;13.17;;;;;;;;;;5034933;28;20237;-42
2022/12/02 05:43:18;;;;;;;27.67;12.73;;;;;;;;;;5035071;28;20232;-40
2022/12/02 05:45:46;;;;;;;31.10;13.33;;;;;;;;;;5034698;28;20240;-40
2022/12/02 05:48:15;;;;;;;27.57;14.40;;;;;;;;;;5035122;28;20229;-42
2022/12/02 05:50:42;;;;;;;25.33;13.30;;;;;;;;;;5034811;28;20220;-43
2022/12/02 05:53:22;;;;;;;26.60;13.03;;;;;;;;;;5033912;28;20282;-42
2022/12/02 05:55:50;;;;;;;25.93;14.40;;;;;;;;;;5033721;28;20556;-43
2022/12/02 05:58:17;;;;;;;30.93;15.30;;;;;;;;;;5033925;28;20281;-44
2022/12/02 06:00:48;;;;;;;27.87;14.40;;;;;;;;;;5032125;28;20232;-42
2022/12/02 06:03:18;;;;;;;29.63;13.90;;;;;;;;;;5016395;28;20221;-41
2022/12/02 06:05:47;;;;;;;29.83;13.60;;;;;;;;;;5034061;28;20289;-40
2022/12/02 06:08:19;;;;;;;28.30;14.20;;;;;;;;;;5034872;28;20232;-44
2022/12/02 06:10:48;;;;;;;28.17;14.07;;;;;;;;;;5034230;28;20244;-41
2022/12/02 06:13:19;;;;;;;32.10;14.77;;;;;;;;;;5033582;28;20233;-44
2022/12/02 06:15:46;;;;;;;33.83;14.67;;;;;;;;;;5034317;28;20232;-41
2022/12/02 06:18:20;;;;;;;30.97;13.90;;;;;;;;;;5034023;28;20208;-41
2022/12/02 06:20:51;;;;;;;36.20;16.03;;;;;;;;;;5034299;28;20288;-43
2022/12/02 06:23:19;;;;;;;30.63;13.97;;;;;;;;;;5033881;28;20235;-43
2022/12/02 06:25:47;;;;;;;29.00;13.93;;;;;;;;;;5032711;28;20316;-42
2022/12/02 06:28:34;;;;;;;30.13;14.13;;;;;;;;;;5034603;28;20272;-42
2022/12/02 06:31:36;;;;;;;25.10;13.23;;;;;;;;;;5034209;28;20283;-41
2022/12/02 06:34:19;;;;;;;27.03;14.10;;;;;;;;;;5032854;28;20629;-42
2022/12/02 06:36:46;;;;;;;38.60;14.73;;;;;;;;;;5033865;28;20266;-42
2022/12/02 06:39:22;;;;;;;28.03;13.87;;;;;;;;;;5034133;28;20205;-42
2022/12/02 06:41:53;;;;;;;29.87;15.20;;;;;;;;;;5033361;28;20236;-43
2022/12/02 06:47:36;;;;;;;30.93;15.10;;;;;;;;;;5023654;28;20209;-42
2022/12/02 06:50:03;;;;;;;35.20;15.73;;;;;;;;;;5014739;28;20283;-43
2022/12/02 06:52:41;;;;;;;33.97;14.83;;;;;;;;;;5037228;28;20215;-43
2022/12/02 06:55:25;;;;;;;29.63;13.80;;;;;;;;;;5043634;28;20572;-41
2022/12/02 06:57:56;;;;;;;26.60;13.60;;;;;;;;;;5033115;28;20198;-42
2022/12/02 07:00:23;;;;;;;41.53;19.40;;;;;;;;;;5032946;28;20258;-41
2022/12/02 07:02:50;;;;;;;26.57;14.07;;;;;;;;;;5034582;28;20655;-42
2022/12/02 07:05:20;;;;;;;31.43;13.93;;;;;;;;;;5033893;28;20236;-41
2022/12/02 07:07:46;;;;;;;27.93;13.50;;;;;;;;;;5033949;28;20216;-43
2022/12/02 07:10:20;;;;;;;31.57;13.90;;;;;;;;;;5034050;28;20212;-43
2022/12/02 07:12:47;;;;;;;28.03;13.67;;;;;;;;;;5034810;28;20272;-41
2022/12/02 07:15:30;;;;;;;25.83;13.30;;;;;;;;;;5034721;28;20209;-41
2022/12/02 07:18:00;;;;;;;32.53;13.73;;;;;;;;;;5033030;28;20616;-42
2022/12/02 07:20:32;;;;;;;29.33;14.00;;;;;;;;;;5032777;28;20204;-43
2022/12/02 07:23:01;;;;;;;30.33;13.93;;;;;;;;;;5031560;28;20737;-41
2022/12/02 07:25:42;;;;;;;28.93;13.97;;;;;;;;;;5029880;28;20225;-41
2022/12/02 07:28:28;;;;;;;27.00;13.67;;;;;;;;;;5023471;28;20213;-40
2022/12/02 07:31:19;;;;;;;33.87;15.10;;;;;;;;;;5034664;28;20185;-41
2022/12/02 07:33:46;;;;;;;27.93;13.10;;;;;;;;;;5032652;28;20209;-41
2022/12/02 07:36:13;;;;;;;25.03;11.60;;;;;;;;;;5033810;28;20544;-40
2022/12/02 07:38:39;;;;;;;28.17;11.73;;;;;;;;;;5033880;28;20204;-43
2022/12/02 07:41:27;;;;;;;25.70;11.43;;;;;;;;;;5028386;28;20212;-41
2022/12/02 07:44:00;;;;;;;27.27;12.17;;;;;;;;;;5023162;28;20224;-40
2022/12/02 07:46:27;;;;;;;30.27;11.43;;;;;;;;;;5033861;28;20240;-42
2022/12/02 07:48:54;;;;;;;26.37;11.40;;;;;;;;;;5034093;28;20288;-40
2022/12/02 07:51:23;;;;;;;24.87;12.13;;;;;;;;;;5032995;28;20200;-41
2022/12/02 07:53:50;;;;;;;27.23;12.00;;;;;;;;;;5015810;28;20206;-42
2022/12/02 07:56:18;;;;;;;25.53;12.67;;;;;;;;;;5013568;28;20256;-41
2022/12/02 07:58:44;;;;;;;72.30;32.80;;;;;;;;;;5014361;28;20556;-42
2022/12/02 08:01:31;;;;;;;152.83;79.80;;;;;;;;;;5020483;28;20614;-42
2022/12/02 08:03:58;;;;;;;158.63;79.43;;;;;;;;;;5033444;28;20614;-42
2022/12/02 08:06:25;;;;;;;120.30;64.10;;;;;;;;;;5035951;28;20224;-41
2022/12/02 08:08:52;;;;;;;71.20;41.13;;;;;;;;;;5035836;28;20295;-42
2022/12/02 08:11:20;;;;;;;43.67;20.63;;;;;;;;;;5032123;28;20204;-41
2022/12/02 08:13:46;;;;;;;33.60;19.17;;;;;;;;;;5037534;28;20209;-41
2022/12/02 08:16:14;;;;;;;53.53;33.27;;;;;;;;;;5037385;28;20196;-42
2022/12/02 08:18:41;;;;;;;36.57;16.70;;;;;;;;;;5037265;28;20208;-41
2022/12/02 08:21:08;;;;;;;33.00;14.20;;;;;;;;;;5035725;28;20623;-42
2022/12/02 08:23:35;;;;;;;40.00;16.70;;;;;;;;;;5037194;28;20693;-41
2022/12/02 08:26:03;;;;;;;123.43;49.27;;;;;;;;;;5027953;28;20217;-42
2022/12/02 08:28:30;;;;;;;326.17;118.57;;;;;;;;;;5035886;28;20213;-41
2022/12/02 08:30:57;;;;;;;515.97;215.47;;;;;;;;;;5035593;28;20643;-42
2022/12/02 08:33:24;;;;;;;352.07;128.97;;;;;;;;;;5034369;28;20519;-41
2022/12/02 08:35:51;;;;;;;486.87;182.07;;;;;;;;;;5035390;28;20660;-41
2022/12/02 08:38:18;;;;;;;35.00;17.73;;;;;;;;;;5036109;28;20208;-41
2022/12/02 08:40:45;;;;;;;136.23;41.60;;;;;;;;;;5036789;28;20201;-41
2022/12/02 08:43:12;;;;;;;291.60;83.77;;;;;;;;;;5037395;28;20201;-41
2022/12/02 08:45:39;;;;;;;309.47;82.33;;;;;;;;;;5037028;28;20236;-41
2022/12/02 08:48:06;;;;;;;272.90;80.23;;;;;;;;;;5037420;28;20629;-40
2022/12/02 08:50:33;;;;;;;333.57;98.90;;;;;;;;;;5037006;28;20235;-42
2022/12/02 08:53:00;;;;;;;334.83;99.97;;;;;;;;;;5036705;28;20208;-41
2022/12/02 08:55:27;;;;;;;251.80;87.20;;;;;;;;;;5036579;28;20542;-40
2022/12/02 08:57:54;;;;;;;204.73;80.97;;;;;;;;;;5037181;28;20209;-41
2022/12/02 09:00:21;;;;;;;97.17;53.97;;;;;;;;;;5035932;28;20224;-41
2022/12/02 09:02:48;;;;;;;71.87;37.93;;;;;;;;;;5036257;28;20204;-41
2022/12/02 09:05:16;;;;;;;81.43;36.73;;;;;;;;;;5034968;28;20550;-40
2022/12/02 09:07:43;;;;;;;100.70;38.13;;;;;;;;;;5035668;28;20227;-40
2022/12/02 09:10:11;;;;;;;107.07;39.63;;;;;;;;;;5034987;28;20205;-42
2022/12/02 09:12:38;;;;;;;51.50;18.40;;;;;;;;;;5036210;28;20205;-40
2022/12/02 09:15:05;;;;;;;76.17;36.73;;;;;;;;;;5035784;28;20223;-42
2022/12/02 09:17:32;;;;;;;92.80;37.33;;;;;;;;;;5034684;28;20622;-45
2022/12/02 09:19:59;;;;;;;144.80;51.03;;;;;;;;;;5036071;28;20542;-41
2022/12/02 09:22:26;;;;;;;71.20;26.77;;;;;;;;;;5036195;28;20232;-41
2022/12/02 09:24:53;;;;;;;117.33;43.57;;;;;;;;;;5036089;28;20208;-41
2022/12/02 09:27:20;;;;;;;96.97;37.40;;;;;;;;;;5036428;28;20224;-41
2022/12/02 09:29:47;;;;;;;122.57;48.97;;;;;;;;;;5035399;28;20219;-42
2022/12/02 09:32:14;;;;;;;179.70;64.27;;;;;;;;;;5036118;28;20208;-41
2022/12/02 09:34:41;;;;;;;139.40;49.73;;;;;;;;;;5035764;28;20216;-42
2022/12/02 09:37:08;;;;;;;87.63;29.80;;;;;;;;;;5034022;28;20630;-43
2022/12/02 09:39:35;;;;;;;67.80;30.57;;;;;;;;;;5034139;28;20200;-42
2022/12/02 09:42:06;;;;;;;101.40;39.83;;;;;;;;;;5036028;28;20220;-42
2022/12/02 09:44:34;;;;;;;61.17;25.97;;;;;;;;;;5035712;28;20205;-41
2022/12/02 09:47:00;;;;;;;80.63;33.87;;;;;;;;;;5035300;28;20239;-42
2022/12/02 09:49:29;;;;;;;55.23;25.90;;;;;;;;;;5034949;28;20216;-42
2022/12/02 09:51:58;;;;;;;61.23;31.40;;;;;;;;;;5035779;28;20219;-42
2022/12/02 09:54:26;;;;;;;44.03;24.40;;;;;;;;;;5034357;28;20219;-42
2022/12/02 09:56:53;;;;;;;25.20;12.40;;;;;;;;;;5035624;28;20201;-42
2022/12/02 09:59:21;;;;;;;26.23;13.50;;;;;;;;;;5035124;28;20200;-41
2022/12/02 10:01:48;;;;;;;23.27;11.80;;;;;;;;;;5029230;28;20215;-41
2022/12/02 10:04:20;;;;;;;19.03;10.73;;;;;;;;;;5016858;28;20213;-41
2022/12/02 10:06:47;;;;;;;19.70;10.70;;;;;;;;;;5014341;28;20228;-40
2022/12/02 10:09:20;;;;;;;23.73;11.30;;;;;;;;;;5016238;28;20205;-41
2022/12/02 10:11:47;;;;;;;20.07;9.57;;;;;;;;;;5015261;28;20194;-41
2022/12/02 10:14:15;;;;;;;19.60;10.20;;;;;;;;;;5014974;28;20213;-42
2022/12/02 10:16:41;;;;;;;19.53;9.07;;;;;;;;;;5015164;28;20278;-44
2022/12/02 10:19:14;;;;;;;20.40;11.10;;;;;;;;;;5014036;28;20221;-41
2022/12/02 10:21:41;;;;;;;20.93;11.37;;;;;;;;;;5013840;28;20299;-42
2022/12/02 10:24:09;;;;;;;25.40;13.00;;;;;;;;;;5013439;28;20537;-42
2022/12/02 10:26:44;;;;;;;20.83;11.03;;;;;;;;;;5012482;28;20221;-42
2022/12/02 10:29:24;;;;;;;24.17;11.03;;;;;;;;;;5013720;28;20583;-40
2022/12/02 10:31:59;;;;;;;19.93;10.87;;;;;;;;;;5016169;28;20236;-41
2022/12/02 10:34:27;;;;;;;27.53;11.60;;;;;;;;;;5015328;28;20204;-41
2022/12/02 10:36:55;;;;;;;20.97;10.43;;;;;;;;;;5015527;28;20227;-42
2022/12/02 10:39:28;;;;;;;30.03;13.17;;;;;;;;;;5015249;28;20208;-40
2022/12/02 10:42:03;;;;;;;31.07;13.07;;;;;;;;;;5013941;28;20312;-41
2022/12/02 10:44:39;;;;;;;23.13;11.27;;;;;;;;;;5016458;28;20585;-41
2022/12/02 10:47:13;;;;;;;29.20;12.07;;;;;;;;;;5025383;28;20246;-41
2022/12/02 10:49:51;;;;;;;24.73;12.17;;;;;;;;;;5020332;28;20224;-42
2022/12/02 10:52:25;;;;;;;30.63;12.73;;;;;;;;;;5020222;28;20235;-42
2022/12/02 10:54:54;;;;;;;26.50;12.63;;;;;;;;;;5025563;28;20227;-45
2022/12/02 10:57:23;;;;;;;28.47;13.47;;;;;;;;;;5024988;28;20274;-46
2022/12/02 10:59:52;;;;;;;26.53;13.70;;;;;;;;;;5031944;28;20233;-43
2022/12/02 11:02:47;;;;;;;29.77;14.00;;;;;;;;;;5033744;28;20311;-43
2022/12/02 11:05:15;;;;;;;25.47;13.27;;;;;;;;;;5028407;28;20232;-45
2022/12/02 11:08:02;;;;;;;27.63;13.37;;;;;;;;;;5033471;28;20237;-42
2022/12/02 11:10:35;;;;;;;28.53;13.17;;;;;;;;;;5032088;28;20780;-43
2022/12/02 11:13:05;;;;;;;27.13;13.03;;;;;;;;;;5030507;28;20722;-44
2022/12/02 11:15:35;;;;;;;30.57;14.50;;;;;;;;;;5029386;28;20572;-43
2022/12/02 11:18:03;;;;;;;32.57;15.83;;;;;;;;;;5033847;28;20232;-43
2022/12/02 11:20:39;;;;;;;26.70;13.43;;;;;;;;;;5033418;28;20662;-42
2022/12/02 11:23:19;;;;;;;29.57;15.00;;;;;;;;;;5033999;28;20250;-42
2022/12/02 11:25:47;;;;;;;27.97;13.97;;;;;;;;;;5033726;28;20228;-46
2022/12/02 11:28:31;;;;;;;30.70;12.77;;;;;;;;;;5032944;28;20232;-44
2022/12/02 11:31:13;;;;;;;29.07;13.83;;;;;;;;;;5033894;28;20244;-43
2022/12/02 11:33:46;;;;;;;29.37;13.30;;;;;;;;;;5033838;28;20232;-44
2022/12/02 11:36:24;;;;;;;28.37;14.23;;;;;;;;;;5033356;28;20681;-48
2022/12/02 11:39:04;;;;;;;37.30;13.57;;;;;;;;;;5031824;28;20224;-43
2022/12/02 11:41:46;;;;;;;29.17;14.33;;;;;;;;;;5032950;28;20221;-44
2022/12/02 11:44:21;;;;;;;28.37;13.60;;;;;;;;;;5037191;28;20234;-45
2022/12/02 11:46:51;;;;;;;31.67;14.40;;;;;;;;;;5036780;28;20301;-43
2022/12/02 11:49:30;;;;;;;67.47;26.37;;;;;;;;;;5036213;28;20541;-43
2022/12/02 11:52:03;;;;;;;141.63;48.73;;;;;;;;;;5036130;28;20225;-44
2022/12/02 11:54:36;;;;;;;33.00;14.33;;;;;;;;;;5030676;28;20230;-43
2022/12/02 11:57:04;;;;;;;26.00;13.27;;;;;;;;;;5037172;28;20247;-43
2022/12/02 11:59:33;;;;;;;27.73;13.60;;;;;;;;;;5034407;28;20244;-43
2022/12/02 12:02:17;;;;;;;28.47;13.33;;;;;;;;;;5034841;28;20233;-44
2022/12/02 12:04:45;;;;;;;29.47;13.77;;;;;;;;;;5037193;28;20258;-43
2022/12/02 12:07:13;;;;;;;23.20;12.07;;;;;;;;;;5036629;28;20680;-44
2022/12/02 12:09:39;;;;;;;26.80;13.07;;;;;;;;;;5035259;28;20414;-45
2022/12/02 12:12:10;;;;;;;33.90;16.90;;;;;;;;;;5035520;28;20225;-44
2022/12/02 12:14:54;;;;;;;26.80;13.90;;;;;;;;;;5034037;28;20231;-46
2022/12/02 12:17:29;;;;;;;32.70;15.20;;;;;;;;;;5035042;28;20227;-43
2022/12/02 12:19:56;;;;;;;31.03;15.33;;;;;;;;;;5033188;28;20227;-44
2022/12/02 12:22:26;;;;;;;29.97;14.83;;;;;;;;;;5035825;28;20578;-43
2022/12/02 12:24:52;;;;;;;27.03;12.87;;;;;;;;;;5036447;28;20243;-43
2022/12/02 12:27:34;;;;;;;28.00;13.23;;;;;;;;;;5036324;28;20237;-44
2022/12/02 12:30:03;;;;;;;67.60;22.67;;;;;;;;;;5035537;28;20239;-43
2022/12/02 12:32:30;;;;;;;63.67;22.43;;;;;;;;;;5027331;28;20233;-42
2022/12/02 12:34:57;;;;;;;31.80;14.20;;;;;;;;;;5033729;28;20685;-44
2022/12/02 12:37:24;;;;;;;28.40;14.83;;;;;;;;;;5027222;28;20233;-44
2022/12/02 12:39:51;;;;;;;32.57;15.33;;;;;;;;;;5029865;28;20232;-42
2022/12/02 12:42:18;;;;;;;37.57;16.60;;;;;;;;;;5035500;28;20236;-44
2022/12/02 12:44:46;;;;;;;71.57;25.70;;;;;;;;;;5035641;28;20312;-43
2022/12/02 12:47:13;;;;;;;50.20;19.13;;;;;;;;;;5034358;28;20233;-44
2022/12/02 12:49:39;;;;;;;30.20;14.93;;;;;;;;;;5030753;28;20244;-43
2022/12/02 12:52:07;;;;;;;34.83;15.37;;;;;;;;;;5034624;28;20236;-45
2022/12/02 12:54:34;;;;;;;29.13;14.07;;;;;;;;;;5034543;28;20320;-47
2022/12/02 12:57:02;;;;;;;33.43;15.77;;;;;;;;;;5035853;28;20228;-44
2022/12/02 12:59:29;;;;;;;30.27;14.57;;;;;;;;;;5034725;28;20359;-44
2022/12/02 13:01:56;;;;;;;33.33;15.63;;;;;;;;;;5033277;28;20658;-47
2022/12/02 13:04:23;;;;;;;33.70;13.97;;;;;;;;;;5024942;28;20906;-47
2022/12/02 13:06:50;;;;;;;38.73;15.70;;;;;;;;;;5034377;28;20240;-47
2022/12/02 13:09:17;;;;;;;39.07;19.03;;;;;;;;;;5022549;28;20311;-46
2022/12/02 13:11:44;;;;;;;41.23;18.57;;;;;;;;;;5026477;28;20674;-46
2022/12/02 13:14:11;;;;;;;33.57;16.37;;;;;;;;;;5031642;28;20235;-47
2022/12/02 13:16:38;;;;;;;31.60;16.30;;;;;;;;;;5023910;28;20221;-47
2022/12/02 13:19:05;;;;;;;31.60;16.30;;;;;;;;;;5023549;28;20224;-47
2022/12/02 13:21:32;;;;;;;35.80;15.57;;;;;;;;;;5018998;28;20326;-46
2022/12/02 13:23:59;;;;;;;29.40;15.27;;;;;;;;;;5026678;28;20225;-47
2022/12/02 13:26:26;;;;;;;37.10;17.47;;;;;;;;;;5031132;28;20218;-46
2022/12/02 13:28:53;;;;;;;36.10;16.37;;;;;;;;;;5022094;28;20653;-45
2022/12/02 13:31:20;;;;;;;40.90;17.33;;;;;;;;;;5034766;28;20321;-48
2022/12/02 13:33:47;;;;;;;32.73;16.60;;;;;;;;;;5022864;28;20315;-46
2022/12/02 13:36:14;;;;;;;36.67;16.63;;;;;;;;;;5018581;28;20256;-47
2022/12/02 13:38:41;;;;;;;38.17;16.97;;;;;;;;;;5034390;28;20286;-45
2022/12/02 13:41:08;;;;;;;35.03;16.67;;;;;;;;;;5034919;28;20673;-46
2022/12/02 13:43:35;;;;;;;33.97;15.90;;;;;;;;;;5033350;28;20239;-45
2022/12/02 13:46:02;;;;;;;41.87;17.57;;;;;;;;;;5025506;28;20225;-46
2022/12/02 13:48:29;;;;;;;35.00;17.77;;;;;;;;;;5025191;28;20728;-47
2022/12/02 13:50:56;;;;;;;35.63;17.43;;;;;;;;;;5027884;28;20248;-47
2022/12/02 13:53:23;;;;;;;40.47;18.80;;;;;;;;;;5022693;28;20225;-49
2022/12/02 13:55:50;;;;;;;36.40;18.20;;;;;;;;;;5027095;28;20229;-47
2022/12/02 13:58:17;;;;;;;39.03;18.60;;;;;;;;;;5024556;28;20248;-47
2022/12/02 14:00:45;;;;;;;37.30;17.70;;;;;;;;;;5020974;28;20556;-48
2022/12/02 14:03:11;;;;;;;39.47;18.57;;;;;;;;;;5025806;28;20220;-47
2022/12/02 14:05:38;;;;;;;36.67;18.23;;;;;;;;;;5027438;28;20232;-49
2022/12/02 14:08:05;;;;;;;37.30;18.93;;;;;;;;;;5022661;28;20302;-47
2022/12/02 14:10:33;;;;;;;40.13;18.30;;;;;;;;;;5021326;28;20280;-47
2022/12/02 14:12:59;;;;;;;44.93;19.60;;;;;;;;;;5023981;28;20303;-47
2022/12/02 14:15:26;;;;;;;39.97;17.90;;;;;;;;;;5026140;28;20223;-50
2022/12/02 14:17:53;;;;;;;39.30;18.50;;;;;;;;;;5027159;28;20225;-47
2022/12/02 14:20:21;;;;;;;46.53;19.57;;;;;;;;;;5026323;28;20231;-46
2022/12/02 14:22:48;;;;;;;44.43;18.07;;;;;;;;;;5023974;28;20244;-47
2022/12/02 14:25:15;;;;;;;34.50;16.30;;;;;;;;;;5025203;28;20558;-46
2022/12/02 14:27:42;;;;;;;37.17;16.33;;;;;;;;;;5025264;28;20945;-46
2022/12/02 14:30:09;;;;;;;40.13;17.83;;;;;;;;;;5023338;28;20217;-46
2022/12/02 14:32:36;;;;;;;38.87;17.87;;;;;;;;;;5025189;28;20235;-47
2022/12/02 14:35:05;;;;;;;40.73;17.93;;;;;;;;;;5021635;28;20220;-48